Terminal Aerodrome Forecast
Issued by NWS

Home | Current Version | Previous Version | Text Only | Print | Product List | Glossary On
Versions: 1 2 3 4 5 6 7 8 9 10 11 12 13 14 15 16 17 18 19 20
556
FTUS44 KLZK 181313 AAA
TAFHOT
TAF AMD
KHOT 181313Z 1813/1912 06004KT 6SM -RA BR OVC020
      TEMPO 1813/1815 3SM -RA BR OVC010
     FM181500 09004KT 2SM -RA BR OVC015
     FM190000 08003KT 1SM -RA BR BKN001 OVC005=

USA.gov is the U.S. government's official web portal to all federal, state and local government web resources and services.